createdAt,value
2022-12-11T00:00:40.566Z,5.75
2022-12-11T00:04:03.622Z,5.70
2022-12-11T00:07:08.667Z,6.72
2022-12-11T00:10:11.396Z,7.95
2022-12-11T00:13:14.265Z,11.55
2022-12-11T00:16:17.136Z,9.40
2022-12-11T00:19:20.061Z,8.23
2022-12-11T00:22:22.855Z,6.05
2022-12-11T00:25:25.639Z,8.68
2022-12-11T00:28:28.435Z,9.55
2022-12-11T00:31:31.361Z,7.07
2022-12-11T00:34:34.244Z,6.87
2022-12-11T00:37:38.337Z,7.35
2022-12-11T00:40:41.502Z,7.05
2022-12-11T00:43:44.387Z,7.72
2022-12-11T00:46:47.285Z,7.30
2022-12-11T00:49:50.379Z,8.60
2022-12-11T00:52:53.242Z,8.20
2022-12-11T00:55:55.984Z,7.50
2022-12-11T00:58:58.766Z,6.87
2022-12-11T01:02:01.505Z,8.45
2022-12-11T01:05:04.997Z,9.05
2022-12-11T01:08:08.225Z,7.72
2022-12-11T01:11:14.040Z,7.45
2022-12-11T01:14:16.903Z,8.68
2022-12-11T01:17:19.795Z,8.43
2022-12-11T01:20:23.987Z,10.05
2022-12-11T01:23:26.762Z,9.20
2022-12-11T01:26:30.734Z,10.95
2022-12-11T01:29:33.529Z,10.25
2022-12-11T01:32:36.382Z,8.70
2022-12-11T01:35:40.273Z,9.25
2022-12-11T01:38:43.415Z,10.80
2022-12-11T01:41:46.171Z,9.40
2022-12-11T01:44:48.942Z,10.32
2022-12-11T01:48:05.671Z,12.35
2022-12-11T01:51:08.492Z,10.10
2022-12-11T01:54:14.348Z,9.25
2022-12-11T01:57:17.246Z,8.32
2022-12-11T02:00:21.625Z,8.30
2022-12-11T02:03:25.128Z,8.95
2022-12-11T02:06:40.556Z,10.45
2022-12-11T02:09:46.259Z,8.95
2022-12-11T02:13:06.114Z,7.87
2022-12-11T02:16:33.901Z,6.87
2022-12-11T02:19:53.078Z,7.68
2022-12-11T02:23:17.920Z,7.57
2022-12-11T02:26:20.579Z,7.03
2022-12-11T02:29:31.296Z,7.10
2022-12-11T02:32:47.421Z,6.00
2022-12-11T02:35:50.968Z,7.40
2022-12-11T02:42:00.513Z,6.47
2022-12-11T02:45:06.714Z,5.68
2022-12-11T02:48:11.374Z,4.28
2022-12-11T02:51:17.258Z,4.62
2022-12-11T02:54:25.768Z,4.87
2022-12-11T02:57:39.559Z,4.20
2022-12-11T03:00:42.449Z,4.00
2022-12-11T03:03:45.435Z,4.47
2022-12-11T03:06:53.481Z,4.60
2022-12-11T03:09:56.290Z,5.75
2022-12-11T03:13:00.906Z,4.30
2022-12-11T03:16:07.189Z,13.27
2022-12-11T03:19:35.668Z,4.90
2022-12-11T03:22:47.430Z,3.58
2022-12-11T03:25:56.540Z,5.00
2022-12-11T03:29:20.255Z,5.15
2022-12-11T03:32:28.514Z,4.72
2022-12-11T03:35:36.270Z,3.37
2022-12-11T03:38:38.873Z,3.33
2022-12-11T03:41:44.120Z,3.30
2022-12-11T03:44:50.340Z,3.78
2022-12-11T03:47:55.863Z,2.85
2022-12-11T03:51:00.890Z,4.30
2022-12-11T03:54:03.982Z,3.83
2022-12-11T03:57:08.477Z,3.87
2022-12-11T04:00:17.384Z,2.92
2022-12-11T04:03:20.623Z,2.80
2022-12-11T04:06:23.231Z,3.60
2022-12-11T04:09:26.359Z,3.20
2022-12-11T04:12:28.803Z,2.80
2022-12-11T04:15:31.906Z,3.75
2022-12-11T04:18:53.478Z,3.70
2022-12-11T04:22:15.344Z,3.25
2022-12-11T04:25:17.846Z,3.87
2022-12-11T04:28:20.812Z,4.07
2022-12-11T04:31:23.277Z,4.55
2022-12-11T04:34:26.406Z,3.72
2022-12-11T04:37:28.843Z,4.07
2022-12-11T04:40:31.816Z,5.50
2022-12-11T04:43:34.874Z,4.18
2022-12-11T04:46:38.083Z,6.07
2022-12-11T04:49:40.671Z,4.65
2022-12-11T04:52:44.298Z,6.07
2022-12-11T04:55:46.785Z,6.07
2022-12-11T04:58:49.725Z,7.28
2022-12-11T05:01:52.473Z,9.27
2022-12-11T05:04:55.561Z,8.45
2022-12-11T05:07:58.013Z,6.20
2022-12-11T05:11:03.938Z,6.87
2022-12-11T05:14:06.544Z,7.28
2022-12-11T05:17:09.554Z,7.15
2022-12-11T05:20:12.173Z,9.73
2022-12-11T05:23:15.187Z,7.87
2022-12-11T05:26:19.918Z,7.75
2022-12-11T05:29:22.941Z,6.95
2022-12-11T05:32:25.460Z,7.15
2022-12-11T05:35:28.407Z,9.20
2022-12-11T05:38:30.889Z,9.05
2022-12-11T05:41:34.009Z,8.82
2022-12-11T05:44:36.464Z,8.57
2022-12-11T05:47:39.493Z,9.95
2022-12-11T05:50:41.907Z,8.07
2022-12-11T05:53:46.590Z,7.43
2022-12-11T05:56:50.583Z,6.85
2022-12-11T05:59:53.641Z,6.60
2022-12-11T06:02:56.248Z,6.62
2022-12-11T06:06:03.196Z,6.72
2022-12-11T06:09:06.689Z,5.55
2022-12-11T06:12:09.776Z,6.70
2022-12-11T06:15:12.365Z,5.57
2022-12-11T06:18:15.815Z,6.37
2022-12-11T06:21:23.962Z,6.18
2022-12-11T06:24:26.937Z,6.60
2022-12-11T06:27:29.365Z,6.03
2022-12-11T06:30:37.594Z,6.85
2022-12-11T06:33:41.835Z,7.05
2022-12-11T06:36:45.459Z,9.23
2022-12-11T06:39:48.007Z,7.32
2022-12-11T06:42:51.015Z,7.20
2022-12-11T06:45:55.098Z,6.78
2022-12-11T06:48:59.830Z,7.55
2022-12-11T06:52:02.486Z,7.22
2022-12-11T06:55:06.138Z,6.75
2022-12-11T06:58:09.715Z,7.53
2022-12-11T07:01:24.802Z,7.57
2022-12-11T07:04:27.752Z,7.47
2022-12-11T07:07:30.764Z,7.35
2022-12-11T07:10:33.204Z,6.68
2022-12-11T07:13:36.746Z,6.78
2022-12-11T07:16:39.241Z,7.47
2022-12-11T07:19:42.443Z,10.52
2022-12-11T07:22:46.840Z,9.47
2022-12-11T07:25:50.109Z,6.25
2022-12-11T07:28:52.589Z,8.63
2022-12-11T07:31:55.808Z,7.55
2022-12-11T07:34:58.350Z,8.88
2022-12-11T07:38:01.451Z,7.60
2022-12-11T07:41:06.764Z,7.47
2022-12-11T07:44:12.079Z,7.78
2022-12-11T07:47:14.698Z,7.00
2022-12-11T07:50:17.890Z,8.00
2022-12-11T07:53:20.278Z,7.33
2022-12-11T07:56:23.592Z,12.00
2022-12-11T07:59:26.030Z,13.00
2022-12-11T08:02:32.661Z,8.20
2022-12-11T08:05:39.635Z,7.57
2022-12-11T08:08:43.275Z,8.98
2022-12-11T08:11:48.032Z,7.00
2022-12-11T08:14:50.846Z,5.85
2022-12-11T08:17:53.609Z,6.40
2022-12-11T08:20:56.354Z,5.97
2022-12-11T08:23:59.102Z,7.05
2022-12-11T08:27:01.933Z,5.57
2022-12-11T08:30:05.127Z,6.25
2022-12-11T08:33:08.130Z,8.55
2022-12-11T08:36:13.984Z,5.47
2022-12-11T08:39:16.761Z,5.10
2022-12-11T08:42:19.467Z,5.25
2022-12-11T08:45:22.215Z,5.32
2022-12-11T08:48:25.022Z,6.57
2022-12-11T08:51:29.026Z,5.72
2022-12-11T08:54:31.935Z,5.70
2022-12-11T08:57:34.626Z,5.15
2022-12-11T09:00:37.319Z,4.95
2022-12-11T09:03:40.900Z,4.75
2022-12-11T09:06:43.788Z,5.45
2022-12-11T09:09:46.843Z,5.95
2022-12-11T09:12:49.629Z,5.18
2022-12-11T09:15:52.392Z,4.40
2022-12-11T09:18:58.018Z,5.00
2022-12-11T09:22:01.819Z,5.65
2022-12-11T09:25:04.991Z,4.57
2022-12-11T09:28:07.756Z,4.72
2022-12-11T09:31:26.010Z,5.15
2022-12-11T09:34:29.598Z,4.10
2022-12-11T09:37:33.834Z,4.00
2022-12-11T09:40:43.010Z,11.05
2022-12-11T09:44:04.669Z,5.30
2022-12-11T09:47:40.509Z,4.28
2022-12-11T09:50:43.883Z,4.68
2022-12-11T09:53:47.099Z,4.07
2022-12-11T09:57:05.207Z,4.18
2022-12-11T10:00:17.897Z,4.05
2022-12-11T10:04:03.168Z,3.30
2022-12-11T10:07:05.850Z,3.87
2022-12-11T10:10:38.455Z,3.42
2022-12-11T10:14:14.930Z,4.35
2022-12-11T10:17:23.320Z,4.50
2022-12-11T10:20:36.454Z,4.32
2022-12-11T10:23:48.054Z,5.18
2022-12-11T10:26:56.071Z,3.53
2022-12-11T10:30:20.774Z,4.03
2022-12-11T10:33:28.837Z,4.85
2022-12-11T10:36:37.134Z,5.82
2022-12-11T10:39:40.024Z,4.32
2022-12-11T10:42:52.362Z,4.35
2022-12-11T10:45:55.281Z,5.30
2022-12-11T10:49:00.169Z,4.87
2022-12-11T10:52:18.799Z,5.35
2022-12-11T10:55:30.996Z,6.62
2022-12-11T10:58:37.981Z,4.85
2022-12-11T11:01:47.551Z,6.68
2022-12-11T11:04:51.380Z,4.55
2022-12-11T11:08:14.978Z,6.15
2022-12-11T11:11:35.113Z,4.37
2022-12-11T11:14:37.920Z,4.93
2022-12-11T11:17:56.381Z,10.90
2022-12-11T11:21:00.715Z,12.25
2022-12-11T11:24:04.060Z,7.15
2022-12-11T11:27:31.007Z,5.25
2022-12-11T11:30:38.565Z,5.80
2022-12-11T11:33:52.295Z,5.62
2022-12-11T11:40:08.390Z,4.90
2022-12-11T11:43:18.729Z,4.62
2022-12-11T11:46:30.402Z,6.57
2022-12-11T11:49:44.841Z,5.55
2022-12-11T11:53:02.423Z,6.70
2022-12-11T11:56:22.687Z,5.80
2022-12-11T11:59:31.371Z,4.95
2022-12-11T12:02:34.508Z,7.55
2022-12-11T12:05:49.989Z,5.68
2022-12-11T12:09:28.117Z,5.53
2022-12-11T12:12:42.931Z,5.07
2022-12-11T12:15:56.169Z,6.95
2022-12-11T12:19:19.553Z,4.28
2022-12-11T12:23:03.748Z,6.90
2022-12-11T12:26:11.272Z,5.65
2022-12-11T12:29:13.987Z,7.90
2022-12-11T12:32:27.775Z,6.65
2022-12-11T12:35:50.556Z,6.25
2022-12-11T12:39:15.995Z,6.62
2022-12-11T12:42:30.852Z,6.55
2022-12-11T12:46:01.767Z,5.93
2022-12-11T12:49:10.799Z,8.85
2022-12-11T12:52:28.072Z,8.38
2022-12-11T12:55:32.034Z,5.90
2022-12-11T12:58:34.972Z,6.60
2022-12-11T13:01:38.563Z,5.68
2022-12-11T13:04:59.451Z,5.90
2022-12-11T13:08:04.839Z,5.93
2022-12-11T13:11:10.399Z,6.55
2022-12-11T13:14:16.323Z,6.80
2022-12-11T13:17:21.901Z,6.78
2022-12-11T13:20:28.916Z,6.22
2022-12-11T13:23:34.582Z,6.15
2022-12-11T13:26:37.376Z,6.82
2022-12-11T13:29:42.159Z,8.80
2022-12-11T13:33:05.689Z,6.57
2022-12-11T13:36:16.884Z,6.32
2022-12-11T13:39:27.448Z,7.90
2022-12-11T13:42:34.551Z,8.63
2022-12-11T13:45:44.113Z,8.32
2022-12-11T13:49:01.039Z,7.97
2022-12-11T13:52:05.890Z,7.55
2022-12-11T13:55:21.927Z,8.07
2022-12-11T13:58:25.522Z,7.12
2022-12-11T14:04:35.067Z,6.68
2022-12-11T14:07:59.501Z,7.82
2022-12-11T14:11:03.071Z,8.05
2022-12-11T14:14:17.999Z,10.57
2022-12-11T14:17:26.385Z,8.10
2022-12-11T14:20:33.976Z,9.20
2022-12-11T14:23:37.789Z,9.57
2022-12-11T14:26:40.455Z,8.10
2022-12-11T14:29:43.719Z,9.05
2022-12-11T14:32:46.375Z,10.00
2022-12-11T14:35:52.101Z,8.68
2022-12-11T14:39:02.206Z,9.30
2022-12-11T14:42:13.925Z,10.27
2022-12-11T14:45:45.051Z,11.32
2022-12-11T14:49:00.615Z,9.63
2022-12-11T14:52:05.033Z,9.95
2022-12-11T14:55:15.050Z,11.00
2022-12-11T14:58:17.471Z,12.43
2022-12-11T15:01:32.601Z,10.85
2022-12-11T15:04:35.356Z,10.35
2022-12-11T15:07:39.033Z,11.00
2022-12-11T15:10:57.572Z,10.80
2022-12-11T15:14:04.277Z,11.95
2022-12-11T15:17:14.325Z,11.25
2022-12-11T15:20:29.489Z,13.10
2022-12-11T15:23:32.132Z,14.00
2022-12-11T15:26:57.314Z,12.13
2022-12-11T15:30:00.007Z,12.82
2022-12-11T15:33:02.979Z,13.95
2022-12-11T15:36:07.283Z,13.33
2022-12-11T15:39:10.512Z,10.45
2022-12-11T15:42:23.316Z,13.53
2022-12-11T15:45:30.292Z,11.57
2022-12-11T15:48:33.807Z,12.65
2022-12-11T15:51:42.488Z,12.82
2022-12-11T15:54:45.533Z,12.25
2022-12-11T15:57:56.613Z,21.45
2022-12-11T16:00:59.326Z,16.45
2022-12-11T16:04:05.134Z,12.65
2022-12-11T16:07:23.694Z,10.30
2022-12-11T16:10:27.303Z,11.85
2022-12-11T16:13:30.266Z,11.60
2022-12-11T16:19:36.592Z,11.48
2022-12-11T16:22:39.753Z,14.27
2022-12-11T16:25:44.587Z,9.67
2022-12-11T16:28:47.706Z,10.85
2022-12-11T16:31:50.417Z,12.50
2022-12-11T16:34:54.111Z,10.02
2022-12-11T16:37:57.503Z,12.15
2022-12-11T16:41:01.862Z,10.63
2022-12-11T16:44:05.062Z,11.23
2022-12-11T16:47:08.168Z,10.65
2022-12-11T16:50:12.247Z,11.50
2022-12-11T16:53:17.553Z,11.57
2022-12-11T16:56:20.099Z,11.38
2022-12-11T16:59:23.241Z,9.85
2022-12-11T17:02:26.141Z,10.57
2022-12-11T17:08:31.597Z,12.70
2022-12-11T17:11:34.699Z,10.68
2022-12-11T17:14:37.703Z,11.63
2022-12-11T17:20:45.626Z,12.60
2022-12-11T17:23:49.689Z,9.88
2022-12-11T17:29:55.267Z,11.70
2022-12-11T17:32:57.708Z,9.73
2022-12-11T17:36:02.467Z,12.82
2022-12-11T17:39:05.267Z,9.65
2022-12-11T17:42:08.556Z,12.77
2022-12-11T17:45:11.746Z,8.77
2022-12-11T17:48:16.139Z,9.68
2022-12-11T17:51:24.083Z,11.73
2022-12-11T17:54:27.587Z,11.07
2022-12-11T17:57:30.196Z,10.05
2022-12-11T18:00:33.625Z,10.38
2022-12-11T18:03:37.286Z,10.38
2022-12-11T18:06:40.401Z,10.48
2022-12-11T18:09:43.677Z,10.60
2022-12-11T18:12:46.576Z,11.90
2022-12-11T18:16:08.001Z,10.98
2022-12-11T18:19:10.933Z,10.68
2022-12-11T18:22:14.021Z,11.32
2022-12-11T18:25:17.626Z,11.55
2022-12-11T18:28:21.311Z,10.68
2022-12-11T18:31:24.762Z,12.20
2022-12-11T18:37:31.712Z,13.73
2022-12-11T18:40:38.102Z,15.48
2022-12-11T18:43:41.341Z,11.45
2022-12-11T18:46:44.199Z,11.52
2022-12-11T18:49:47.116Z,11.57
2022-12-11T18:52:53.909Z,10.13
2022-12-11T18:56:00.333Z,13.38
2022-12-11T18:59:03.910Z,13.90
2022-12-11T19:02:06.862Z,11.20
2022-12-11T19:05:10.668Z,14.95
2022-12-11T19:08:14.212Z,12.23
2022-12-11T19:11:20.082Z,11.48
2022-12-11T19:14:22.885Z,12.98
2022-12-11T19:17:25.773Z,13.02
2022-12-11T19:23:51.690Z,13.15
2022-12-11T19:26:54.474Z,13.25
2022-12-11T19:29:59.375Z,10.43
2022-12-11T19:33:02.268Z,14.65
2022-12-11T19:36:07.507Z,13.77
2022-12-11T19:39:13.244Z,14.87
2022-12-11T19:42:16.683Z,13.35
2022-12-11T19:45:20.001Z,14.52
2022-12-11T19:48:22.784Z,12.52
2022-12-11T19:51:31.384Z,15.75
2022-12-11T19:54:34.248Z,24.37
2022-12-11T19:57:37.513Z,16.75
2022-12-11T20:00:40.284Z,15.18
2022-12-11T20:03:43.349Z,15.48
2022-12-11T20:06:47.901Z,14.48
2022-12-11T20:09:51.049Z,16.52
2022-12-11T20:12:56.614Z,16.70
2022-12-11T20:16:00.825Z,15.23
2022-12-11T20:19:05.116Z,16.77
2022-12-11T20:22:09.209Z,15.38
2022-12-11T20:25:12.391Z,16.77
2022-12-11T20:28:15.962Z,20.88
2022-12-11T20:31:24.874Z,19.87
2022-12-11T20:34:28.097Z,17.48
2022-12-11T20:37:30.608Z,18.50
2022-12-11T20:40:34.366Z,19.48
2022-12-11T20:43:38.983Z,18.05
2022-12-11T20:46:42.073Z,20.05
2022-12-11T20:49:44.566Z,19.90
2022-12-11T20:52:49.690Z,20.95
2022-12-11T20:55:52.138Z,20.23
2022-12-11T20:58:55.387Z,20.95
2022-12-11T21:01:58.094Z,19.10
2022-12-11T21:05:01.221Z,18.20
2022-12-11T21:08:03.809Z,20.27
2022-12-11T21:11:07.306Z,17.30
2022-12-11T21:14:10.231Z,19.25
2022-12-11T21:20:15.494Z,19.58
2022-12-11T21:23:18.571Z,20.62
2022-12-11T21:26:21.522Z,15.55
2022-12-11T21:32:30.063Z,18.45
2022-12-11T21:35:33.185Z,16.20
2022-12-11T21:38:35.627Z,18.02
2022-12-11T21:41:39.318Z,16.15
2022-12-11T21:45:37.544Z,17.80
2022-12-11T21:48:05.301Z,19.30
2022-12-11T21:51:38.625Z,20.03
2022-12-11T21:54:42.707Z,16.23
2022-12-11T21:57:45.757Z,16.02
2022-12-11T22:00:49.064Z,19.02
2022-12-11T22:03:53.215Z,17.90
2022-12-11T22:06:55.977Z,14.70
2022-12-11T22:09:58.776Z,19.77
2022-12-11T22:13:01.503Z,14.93
2022-12-11T22:16:04.446Z,17.83
2022-12-11T22:19:07.218Z,19.40
2022-12-11T22:22:10.182Z,19.52
2022-12-11T22:25:13.444Z,19.87
2022-12-11T22:31:21.290Z,19.83
2022-12-11T22:34:24.031Z,15.57
2022-12-11T22:37:26.964Z,16.70
2022-12-11T22:40:30.072Z,16.30
2022-12-11T22:43:32.809Z,16.55
2022-12-11T22:46:35.630Z,16.80
2022-12-11T22:49:38.727Z,15.93
2022-12-11T22:52:41.692Z,18.27
2022-12-11T22:55:44.436Z,16.45
2022-12-11T22:58:47.397Z,16.52
2022-12-11T23:01:50.206Z,15.40
2022-12-11T23:04:53.011Z,17.73
2022-12-11T23:07:55.909Z,15.75
2022-12-11T23:10:58.821Z,16.77
2022-12-11T23:14:02.081Z,16.37
2022-12-11T23:17:04.892Z,16.23
2022-12-11T23:20:08.421Z,14.95
2022-12-11T23:26:15.203Z,12.85
2022-12-11T23:29:18.540Z,14.23
2022-12-11T23:32:21.535Z,13.90
2022-12-11T23:35:24.578Z,14.23
2022-12-11T23:38:27.389Z,11.43
2022-12-11T23:41:31.027Z,12.07
2022-12-11T23:44:35.079Z,12.73
2022-12-11T23:47:37.823Z,13.10
2022-12-11T23:50:41.827Z,10.95
2022-12-11T23:53:45.322Z,11.23
2022-12-11T23:59:50.542Z,11.95
